« Back
NWS Peachtree City, Ga » Text Product » AHN Terminal Aerodrome Forecast


Printer-friendly Version
Current Version              Previous Versions:   1  2  3  4  5  6  7  8  9  

Terminal Aerodrome Forecast

189
FTUS42 KFFC 210900 AAA
TAFAHN
TAF AMD
KAHN 210914Z 2109/2206 28005KT 6SM BR SKC
      TEMPO 2109/2112 4SM BR
     FM211600 30010G16KT P6SM FEW250
     FM220000 31006KT P6SM SKC=



USA.gov is the U.S. government's official web portal to all federal, state and local government web resources and services.